sensor_id;sensor_type;location;lat;lon;timestamp;temperature;humidity
22450;DHT22;11392;57.390;-2.468;2023-04-28T00:01:44;6.90;99.90
22450;DHT22;11392;57.390;-2.468;2023-04-28T00:04:11;6.90;99.90
22450;DHT22;11392;57.390;-2.468;2023-04-28T00:06:39;6.90;99.90
22450;DHT22;11392;57.390;-2.468;2023-04-28T00:09:06;6.90;99.90
22450;DHT22;11392;57.390;-2.468;2023-04-28T00:11:37;6.90;99.90
22450;DHT22;11392;57.390;-2.468;2023-04-28T00:14:06;6.90;99.90
22450;DHT22;11392;57.390;-2.468;2023-04-28T00:16:33;6.90;99.90
22450;DHT22;11392;57.390;-2.468;2023-04-28T00:19:01;6.90;99.90
22450;DHT22;11392;57.390;-2.468;2023-04-28T00:21:28;6.90;99.90
22450;DHT22;11392;57.390;-2.468;2023-04-28T00:23:55;6.90;99.90
22450;DHT22;11392;57.390;-2.468;2023-04-28T00:26:22;6.90;99.90
22450;DHT22;11392;57.390;-2.468;2023-04-28T00:28:49;6.90;99.90
22450;DHT22;11392;57.390;-2.468;2023-04-28T00:31:16;6.90;99.90
22450;DHT22;11392;57.390;-2.468;2023-04-28T00:33:44;6.90;99.90
22450;DHT22;11392;57.390;-2.468;2023-04-28T00:36:11;6.90;99.90
22450;DHT22;11392;57.390;-2.468;2023-04-28T00:38:38;6.90;99.90
22450;DHT22;11392;57.390;-2.468;2023-04-28T00:41:05;6.90;99.90
22450;DHT22;11392;57.390;-2.468;2023-04-28T00:43:43;6.90;99.90
22450;DHT22;11392;57.390;-2.468;2023-04-28T00:46:21;6.90;99.90
22450;DHT22;11392;57.390;-2.468;2023-04-28T00:48:49;6.90;99.90
22450;DHT22;11392;57.390;-2.468;2023-04-28T00:51:16;6.90;99.90
22450;DHT22;11392;57.390;-2.468;2023-04-28T00:53:44;6.90;99.90
22450;DHT22;11392;57.390;-2.468;2023-04-28T00:56:11;6.90;99.90
22450;DHT22;11392;57.390;-2.468;2023-04-28T00:58:38;6.90;99.90
22450;DHT22;11392;57.390;-2.468;2023-04-28T01:01:07;6.90;99.90
22450;DHT22;11392;57.390;-2.468;2023-04-28T01:03:38;6.90;99.90
22450;DHT22;11392;57.390;-2.468;2023-04-28T01:06:07;6.90;99.90
22450;DHT22;11392;57.390;-2.468;2023-04-28T01:08:35;6.90;99.90
22450;DHT22;11392;57.390;-2.468;2023-04-28T01:11:03;6.80;99.90
22450;DHT22;11392;57.390;-2.468;2023-04-28T01:13:30;6.80;99.90
22450;DHT22;11392;57.390;-2.468;2023-04-28T01:15:57;6.90;99.90
22450;DHT22;11392;57.390;-2.468;2023-04-28T01:18:25;6.90;99.90
22450;DHT22;11392;57.390;-2.468;2023-04-28T01:20:52;6.90;99.90
22450;DHT22;11392;57.390;-2.468;2023-04-28T01:23:19;6.90;99.90
22450;DHT22;11392;57.390;-2.468;2023-04-28T01:25:46;6.90;99.90
22450;DHT22;11392;57.390;-2.468;2023-04-28T01:28:13;6.80;99.90
22450;DHT22;11392;57.390;-2.468;2023-04-28T01:30:40;6.90;99.90
22450;DHT22;11392;57.390;-2.468;2023-04-28T01:33:07;6.90;99.90
22450;DHT22;11392;57.390;-2.468;2023-04-28T01:35:34;6.90;99.90
22450;DHT22;11392;57.390;-2.468;2023-04-28T01:38:01;6.90;99.90
22450;DHT22;11392;57.390;-2.468;2023-04-28T01:40:28;6.80;99.90
22450;DHT22;11392;57.390;-2.468;2023-04-28T01:42:56;6.80;99.90
22450;DHT22;11392;57.390;-2.468;2023-04-28T01:45:23;6.90;99.90
22450;DHT22;11392;57.390;-2.468;2023-04-28T01:47:50;6.90;99.90
22450;DHT22;11392;57.390;-2.468;2023-04-28T01:50:18;6.80;99.90
22450;DHT22;11392;57.390;-2.468;2023-04-28T01:52:45;6.80;99.90
22450;DHT22;11392;57.390;-2.468;2023-04-28T01:55:12;6.90;99.90
22450;DHT22;11392;57.390;-2.468;2023-04-28T01:57:39;6.90;99.90
22450;DHT22;11392;57.390;-2.468;2023-04-28T02:00:07;6.90;99.90
22450;DHT22;11392;57.390;-2.468;2023-04-28T02:02:34;6.90;99.90
22450;DHT22;11392;57.390;-2.468;2023-04-28T02:05:01;6.90;99.90
22450;DHT22;11392;57.390;-2.468;2023-04-28T02:07:28;6.80;99.90
22450;DHT22;11392;57.390;-2.468;2023-04-28T02:09:55;6.90;99.90
22450;DHT22;11392;57.390;-2.468;2023-04-28T02:12:22;6.90;99.90
22450;DHT22;11392;57.390;-2.468;2023-04-28T02:14:49;6.90;99.90
22450;DHT22;11392;57.390;-2.468;2023-04-28T02:17:16;6.90;99.90
22450;DHT22;11392;57.390;-2.468;2023-04-28T02:19:44;6.90;99.90
22450;DHT22;11392;57.390;-2.468;2023-04-28T02:22:11;6.80;99.90
22450;DHT22;11392;57.390;-2.468;2023-04-28T02:24:38;6.90;99.90
22450;DHT22;11392;57.390;-2.468;2023-04-28T02:27:05;6.90;99.90
22450;DHT22;11392;57.390;-2.468;2023-04-28T02:29:32;6.90;99.90
22450;DHT22;11392;57.390;-2.468;2023-04-28T02:31:59;6.90;99.90
22450;DHT22;11392;57.390;-2.468;2023-04-28T02:34:26;6.90;99.90
22450;DHT22;11392;57.390;-2.468;2023-04-28T02:36:53;6.90;99.90
22450;DHT22;11392;57.390;-2.468;2023-04-28T02:39:20;6.90;99.90
22450;DHT22;11392;57.390;-2.468;2023-04-28T02:41:48;6.90;99.90
22450;DHT22;11392;57.390;-2.468;2023-04-28T02:44:15;6.90;99.90
22450;DHT22;11392;57.390;-2.468;2023-04-28T02:46:42;6.90;99.90
22450;DHT22;11392;57.390;-2.468;2023-04-28T02:49:09;6.90;99.90
22450;DHT22;11392;57.390;-2.468;2023-04-28T02:51:36;6.90;99.90
22450;DHT22;11392;57.390;-2.468;2023-04-28T02:54:04;6.90;99.90
22450;DHT22;11392;57.390;-2.468;2023-04-28T02:56:31;6.90;99.90
22450;DHT22;11392;57.390;-2.468;2023-04-28T02:58:58;6.90;99.90
22450;DHT22;11392;57.390;-2.468;2023-04-28T03:01:26;6.90;99.90
22450;DHT22;11392;57.390;-2.468;2023-04-28T03:03:53;6.90;99.90
22450;DHT22;11392;57.390;-2.468;2023-04-28T03:06:20;6.90;99.90
22450;DHT22;11392;57.390;-2.468;2023-04-28T03:08:47;6.90;99.90
22450;DHT22;11392;57.390;-2.468;2023-04-28T03:11:14;6.90;99.90
22450;DHT22;11392;57.390;-2.468;2023-04-28T03:13:41;6.90;99.90
22450;DHT22;11392;57.390;-2.468;2023-04-28T03:16:08;6.90;99.90
22450;DHT22;11392;57.390;-2.468;2023-04-28T03:18:35;6.90;99.90
22450;DHT22;11392;57.390;-2.468;2023-04-28T03:21:02;6.90;99.90
22450;DHT22;11392;57.390;-2.468;2023-04-28T03:23:29;6.90;99.90
22450;DHT22;11392;57.390;-2.468;2023-04-28T03:25:57;6.90;99.90
22450;DHT22;11392;57.390;-2.468;2023-04-28T03:28:24;6.90;99.90
22450;DHT22;11392;57.390;-2.468;2023-04-28T03:30:50;6.90;99.90
22450;DHT22;11392;57.390;-2.468;2023-04-28T03:33:17;6.90;99.90
22450;DHT22;11392;57.390;-2.468;2023-04-28T03:35:45;7.00;99.90
22450;DHT22;11392;57.390;-2.468;2023-04-28T03:38:12;6.90;99.90
22450;DHT22;11392;57.390;-2.468;2023-04-28T03:40:39;7.00;99.90
22450;DHT22;11392;57.390;-2.468;2023-04-28T03:43:06;6.90;99.90
22450;DHT22;11392;57.390;-2.468;2023-04-28T03:45:33;7.00;99.90
22450;DHT22;11392;57.390;-2.468;2023-04-28T03:48:01;6.90;99.90
22450;DHT22;11392;57.390;-2.468;2023-04-28T03:50:28;7.00;99.90
22450;DHT22;11392;57.390;-2.468;2023-04-28T03:52:55;7.00;99.90
22450;DHT22;11392;57.390;-2.468;2023-04-28T03:55:22;7.00;99.90
22450;DHT22;11392;57.390;-2.468;2023-04-28T03:57:49;7.00;99.90
22450;DHT22;11392;57.390;-2.468;2023-04-28T04:00:16;7.00;99.90
22450;DHT22;11392;57.390;-2.468;2023-04-28T04:02:43;7.00;99.90
22450;DHT22;11392;57.390;-2.468;2023-04-28T04:05:11;6.90;99.90
22450;DHT22;11392;57.390;-2.468;2023-04-28T04:07:38;6.90;99.90
22450;DHT22;11392;57.390;-2.468;2023-04-28T04:10:06;7.00;99.90
22450;DHT22;11392;57.390;-2.468;2023-04-28T04:12:33;6.90;99.90
22450;DHT22;11392;57.390;-2.468;2023-04-28T04:15:00;6.90;99.90
22450;DHT22;11392;57.390;-2.468;2023-04-28T04:17:27;6.90;99.90
22450;DHT22;11392;57.390;-2.468;2023-04-28T04:19:55;7.00;99.90
22450;DHT22;11392;57.390;-2.468;2023-04-28T04:22:22;6.90;99.90
22450;DHT22;11392;57.390;-2.468;2023-04-28T04:24:49;6.90;99.90
22450;DHT22;11392;57.390;-2.468;2023-04-28T04:27:16;7.00;99.90
22450;DHT22;11392;57.390;-2.468;2023-04-28T04:29:43;6.90;99.90
22450;DHT22;11392;57.390;-2.468;2023-04-28T04:32:10;6.90;99.90
22450;DHT22;11392;57.390;-2.468;2023-04-28T04:34:38;6.90;99.90
22450;DHT22;11392;57.390;-2.468;2023-04-28T04:37:06;6.90;99.90
22450;DHT22;11392;57.390;-2.468;2023-04-28T04:39:32;6.90;99.90
22450;DHT22;11392;57.390;-2.468;2023-04-28T04:41:59;7.00;99.90
22450;DHT22;11392;57.390;-2.468;2023-04-28T04:44:42;7.00;99.90
22450;DHT22;11392;57.390;-2.468;2023-04-28T04:47:09;6.90;99.90
22450;DHT22;11392;57.390;-2.468;2023-04-28T04:49:36;7.00;99.90
22450;DHT22;11392;57.390;-2.468;2023-04-28T04:52:03;7.00;99.90
22450;DHT22;11392;57.390;-2.468;2023-04-28T04:54:32;7.00;99.90
22450;DHT22;11392;57.390;-2.468;2023-04-28T04:56:59;6.90;99.90
22450;DHT22;11392;57.390;-2.468;2023-04-28T04:59:27;7.00;99.90
22450;DHT22;11392;57.390;-2.468;2023-04-28T05:01:54;7.00;99.90
22450;DHT22;11392;57.390;-2.468;2023-04-28T05:04:22;7.00;99.90
22450;DHT22;11392;57.390;-2.468;2023-04-28T05:06:50;7.00;99.90
22450;DHT22;11392;57.390;-2.468;2023-04-28T05:09:17;7.00;99.90
22450;DHT22;11392;57.390;-2.468;2023-04-28T05:11:44;7.00;99.90
22450;DHT22;11392;57.390;-2.468;2023-04-28T05:14:12;6.90;99.90
22450;DHT22;11392;57.390;-2.468;2023-04-28T05:16:39;7.00;99.90
22450;DHT22;11392;57.390;-2.468;2023-04-28T05:19:07;7.00;99.90
22450;DHT22;11392;57.390;-2.468;2023-04-28T05:21:34;7.00;99.90
22450;DHT22;11392;57.390;-2.468;2023-04-28T05:24:01;7.00;99.90
22450;DHT22;11392;57.390;-2.468;2023-04-28T05:26:28;7.00;99.90
22450;DHT22;11392;57.390;-2.468;2023-04-28T05:28:55;7.00;99.90
22450;DHT22;11392;57.390;-2.468;2023-04-28T05:31:22;7.00;99.90
22450;DHT22;11392;57.390;-2.468;2023-04-28T05:33:50;7.10;99.90
22450;DHT22;11392;57.390;-2.468;2023-04-28T05:36:17;7.10;99.90
22450;DHT22;11392;57.390;-2.468;2023-04-28T05:38:45;7.00;99.90
22450;DHT22;11392;57.390;-2.468;2023-04-28T05:41:12;7.00;99.90
22450;DHT22;11392;57.390;-2.468;2023-04-28T05:43:39;7.10;99.90
22450;DHT22;11392;57.390;-2.468;2023-04-28T05:46:07;7.10;99.90
22450;DHT22;11392;57.390;-2.468;2023-04-28T05:48:54;7.10;99.90
22450;DHT22;11392;57.390;-2.468;2023-04-28T05:51:21;7.10;99.90
22450;DHT22;11392;57.390;-2.468;2023-04-28T05:53:48;7.10;99.90
22450;DHT22;11392;57.390;-2.468;2023-04-28T05:56:15;7.10;99.90
22450;DHT22;11392;57.390;-2.468;2023-04-28T05:58:42;7.20;99.90
22450;DHT22;11392;57.390;-2.468;2023-04-28T06:01:15;7.20;99.90
22450;DHT22;11392;57.390;-2.468;2023-04-28T06:03:43;7.20;99.90
22450;DHT22;11392;57.390;-2.468;2023-04-28T06:06:11;7.20;99.90
22450;DHT22;11392;57.390;-2.468;2023-04-28T06:08:38;7.20;99.90
22450;DHT22;11392;57.390;-2.468;2023-04-28T06:11:05;7.30;99.90
22450;DHT22;11392;57.390;-2.468;2023-04-28T06:13:32;7.30;99.90
22450;DHT22;11392;57.390;-2.468;2023-04-28T06:15:59;7.40;99.90
22450;DHT22;11392;57.390;-2.468;2023-04-28T06:18:28;7.40;99.90
22450;DHT22;11392;57.390;-2.468;2023-04-28T06:20:58;7.40;99.90
22450;DHT22;11392;57.390;-2.468;2023-04-28T06:23:25;7.50;99.90
22450;DHT22;11392;57.390;-2.468;2023-04-28T06:25:52;7.50;99.90
22450;DHT22;11392;57.390;-2.468;2023-04-28T06:28:19;7.50;99.90
22450;DHT22;11392;57.390;-2.468;2023-04-28T06:30:46;7.60;99.90
22450;DHT22;11392;57.390;-2.468;2023-04-28T06:33:13;7.60;99.90
22450;DHT22;11392;57.390;-2.468;2023-04-28T06:35:40;7.70;99.90
22450;DHT22;11392;57.390;-2.468;2023-04-28T06:38:08;7.70;99.90
22450;DHT22;11392;57.390;-2.468;2023-04-28T06:40:35;7.80;99.90
22450;DHT22;11392;57.390;-2.468;2023-04-28T06:43:02;7.80;99.90
22450;DHT22;11392;57.390;-2.468;2023-04-28T06:45:29;7.80;99.90
22450;DHT22;11392;57.390;-2.468;2023-04-28T06:47:56;7.80;99.90
22450;DHT22;11392;57.390;-2.468;2023-04-28T06:50:23;7.90;99.90
22450;DHT22;11392;57.390;-2.468;2023-04-28T06:52:51;7.90;99.90
22450;DHT22;11392;57.390;-2.468;2023-04-28T06:55:18;8.00;99.90
22450;DHT22;11392;57.390;-2.468;2023-04-28T06:57:45;7.90;99.90
22450;DHT22;11392;57.390;-2.468;2023-04-28T07:00:13;8.00;99.90
22450;DHT22;11392;57.390;-2.468;2023-04-28T07:02:40;8.10;99.90
22450;DHT22;11392;57.390;-2.468;2023-04-28T07:05:08;8.20;99.90
22450;DHT22;11392;57.390;-2.468;2023-04-28T07:07:35;8.20;99.90
22450;DHT22;11392;57.390;-2.468;2023-04-28T07:10:05;8.20;99.90
22450;DHT22;11392;57.390;-2.468;2023-04-28T07:12:32;8.30;99.90
22450;DHT22;11392;57.390;-2.468;2023-04-28T07:14:59;8.40;99.90
22450;DHT22;11392;57.390;-2.468;2023-04-28T07:17:26;8.50;99.90
22450;DHT22;11392;57.390;-2.468;2023-04-28T07:19:53;8.70;99.90
22450;DHT22;11392;57.390;-2.468;2023-04-28T07:22:20;8.80;99.90
22450;DHT22;11392;57.390;-2.468;2023-04-28T07:24:47;8.80;99.90
22450;DHT22;11392;57.390;-2.468;2023-04-28T07:27:14;8.80;99.90
22450;DHT22;11392;57.390;-2.468;2023-04-28T07:29:41;8.90;99.90
22450;DHT22;11392;57.390;-2.468;2023-04-28T07:32:09;8.90;99.90
22450;DHT22;11392;57.390;-2.468;2023-04-28T07:34:36;9.00;99.90
22450;DHT22;11392;57.390;-2.468;2023-04-28T07:37:03;9.10;99.90
22450;DHT22;11392;57.390;-2.468;2023-04-28T07:39:31;9.20;99.90
22450;DHT22;11392;57.390;-2.468;2023-04-28T07:42:02;9.20;99.90
22450;DHT22;11392;57.390;-2.468;2023-04-28T07:44:30;9.30;99.90
22450;DHT22;11392;57.390;-2.468;2023-04-28T07:46:58;9.30;99.90
22450;DHT22;11392;57.390;-2.468;2023-04-28T07:49:27;9.40;99.90
22450;DHT22;11392;57.390;-2.468;2023-04-28T07:51:55;9.40;99.90
22450;DHT22;11392;57.390;-2.468;2023-04-28T07:54:23;9.40;99.90
22450;DHT22;11392;57.390;-2.468;2023-04-28T07:56:51;9.50;99.90
22450;DHT22;11392;57.390;-2.468;2023-04-28T07:59:18;9.50;99.90
22450;DHT22;11392;57.390;-2.468;2023-04-28T08:01:45;9.60;99.90
22450;DHT22;11392;57.390;-2.468;2023-04-28T08:04:12;9.60;99.90
22450;DHT22;11392;57.390;-2.468;2023-04-28T08:06:40;9.60;99.90
22450;DHT22;11392;57.390;-2.468;2023-04-28T08:09:08;9.60;99.90
22450;DHT22;11392;57.390;-2.468;2023-04-28T08:11:35;9.70;99.90
22450;DHT22;11392;57.390;-2.468;2023-04-28T08:14:02;9.80;99.90
22450;DHT22;11392;57.390;-2.468;2023-04-28T08:16:29;9.80;99.90
22450;DHT22;11392;57.390;-2.468;2023-04-28T08:18:57;9.90;99.90
22450;DHT22;11392;57.390;-2.468;2023-04-28T08:21:25;10.00;99.90
22450;DHT22;11392;57.390;-2.468;2023-04-28T08:23:52;10.10;99.90
22450;DHT22;11392;57.390;-2.468;2023-04-28T08:26:20;10.20;99.90
22450;DHT22;11392;57.390;-2.468;2023-04-28T08:28:47;10.30;99.90
22450;DHT22;11392;57.390;-2.468;2023-04-28T08:31:14;10.30;99.90
22450;DHT22;11392;57.390;-2.468;2023-04-28T08:33:41;10.40;99.90
22450;DHT22;11392;57.390;-2.468;2023-04-28T08:36:10;10.40;99.90
22450;DHT22;11392;57.390;-2.468;2023-04-28T08:38:44;10.50;99.90
22450;DHT22;11392;57.390;-2.468;2023-04-28T08:41:14;10.60;99.90
22450;DHT22;11392;57.390;-2.468;2023-04-28T08:43:41;10.70;99.90
22450;DHT22;11392;57.390;-2.468;2023-04-28T08:46:09;10.80;99.90
22450;DHT22;11392;57.390;-2.468;2023-04-28T08:48:41;10.80;99.90
22450;DHT22;11392;57.390;-2.468;2023-04-28T08:51:15;10.80;99.90
22450;DHT22;11392;57.390;-2.468;2023-04-28T08:53:49;10.90;99.90
22450;DHT22;11392;57.390;-2.468;2023-04-28T08:56:23;10.90;99.90
22450;DHT22;11392;57.390;-2.468;2023-04-28T08:58:51;10.90;99.90
22450;DHT22;11392;57.390;-2.468;2023-04-28T09:01:19;11.10;99.90
22450;DHT22;11392;57.390;-2.468;2023-04-28T09:03:46;11.20;99.90
22450;DHT22;11392;57.390;-2.468;2023-04-28T09:06:15;11.30;99.90
22450;DHT22;11392;57.390;-2.468;2023-04-28T09:08:42;11.30;99.90
22450;DHT22;11392;57.390;-2.468;2023-04-28T09:11:10;11.40;99.90
22450;DHT22;11392;57.390;-2.468;2023-04-28T09:13:39;11.90;99.90
22450;DHT22;11392;57.390;-2.468;2023-04-28T09:16:07;12.30;99.90
22450;DHT22;11392;57.390;-2.468;2023-04-28T09:18:34;12.70;99.90
22450;DHT22;11392;57.390;-2.468;2023-04-28T09:21:08;13.30;99.90
22450;DHT22;11392;57.390;-2.468;2023-04-28T09:23:48;13.90;99.90
22450;DHT22;11392;57.390;-2.468;2023-04-28T09:26:16;14.20;99.90
22450;DHT22;11392;57.390;-2.468;2023-04-28T09:28:43;14.60;99.90
22450;DHT22;11392;57.390;-2.468;2023-04-28T09:31:24;14.30;99.90
22450;DHT22;11392;57.390;-2.468;2023-04-28T09:33:56;13.80;99.90
22450;DHT22;11392;57.390;-2.468;2023-04-28T09:36:30;13.20;99.90
22450;DHT22;11392;57.390;-2.468;2023-04-28T09:38:57;12.70;99.90
22450;DHT22;11392;57.390;-2.468;2023-04-28T09:41:42;12.20;99.90
22450;DHT22;11392;57.390;-2.468;2023-04-28T09:44:15;12.50;99.90
22450;DHT22;11392;57.390;-2.468;2023-04-28T09:46:44;12.80;99.90
22450;DHT22;11392;57.390;-2.468;2023-04-28T09:49:12;12.60;99.90
22450;DHT22;11392;57.390;-2.468;2023-04-28T09:51:39;12.30;99.90
22450;DHT22;11392;57.390;-2.468;2023-04-28T09:54:07;12.80;99.90
22450;DHT22;11392;57.390;-2.468;2023-04-28T09:56:34;13.40;99.90
22450;DHT22;11392;57.390;-2.468;2023-04-28T09:59:06;13.50;99.90
22450;DHT22;11392;57.390;-2.468;2023-04-28T10:01:39;13.40;99.90
22450;DHT22;11392;57.390;-2.468;2023-04-28T10:04:07;12.90;99.90
22450;DHT22;11392;57.390;-2.468;2023-04-28T10:06:34;12.90;99.90
22450;DHT22;11392;57.390;-2.468;2023-04-28T10:09:05;12.80;99.90
22450;DHT22;11392;57.390;-2.468;2023-04-28T10:11:33;12.90;99.90
22450;DHT22;11392;57.390;-2.468;2023-04-28T10:14:00;12.90;99.90
22450;DHT22;11392;57.390;-2.468;2023-04-28T10:16:29;12.80;99.90
22450;DHT22;11392;57.390;-2.468;2023-04-28T10:18:57;12.60;99.90
22450;DHT22;11392;57.390;-2.468;2023-04-28T10:21:25;12.20;99.90
22450;DHT22;11392;57.390;-2.468;2023-04-28T10:24:17;12.20;99.90
22450;DHT22;11392;57.390;-2.468;2023-04-28T10:27:07;12.20;99.90
22450;DHT22;11392;57.390;-2.468;2023-04-28T10:29:35;12.10;99.90
22450;DHT22;11392;57.390;-2.468;2023-04-28T10:32:24;12.10;99.90
22450;DHT22;11392;57.390;-2.468;2023-04-28T10:34:52;12.10;99.90
22450;DHT22;11392;57.390;-2.468;2023-04-28T10:37:20;12.10;99.90
22450;DHT22;11392;57.390;-2.468;2023-04-28T10:42:55;12.20;99.90
22450;DHT22;11392;57.390;-2.468;2023-04-28T10:58:43;11.90;99.90
22450;DHT22;11392;57.390;-2.468;2023-04-28T11:03:53;11.70;99.90
22450;DHT22;11392;57.390;-2.468;2023-04-28T11:06:34;11.60;99.90
22450;DHT22;11392;57.390;-2.468;2023-04-28T11:14:34;11.60;99.90
22450;DHT22;11392;57.390;-2.468;2023-04-28T11:17:12;11.70;99.90
22450;DHT22;11392;57.390;-2.468;2023-04-28T11:19:43;11.80;99.90
22450;DHT22;11392;57.390;-2.468;2023-04-28T11:22:19;11.90;99.90
22450;DHT22;11392;57.390;-2.468;2023-04-28T11:24:57;12.00;99.90
22450;DHT22;11392;57.390;-2.468;2023-04-28T11:27:28;12.10;99.90
22450;DHT22;11392;57.390;-2.468;2023-04-28T11:29:55;12.10;99.90
22450;DHT22;11392;57.390;-2.468;2023-04-28T11:32:30;12.20;99.90
22450;DHT22;11392;57.390;-2.468;2023-04-28T11:34:58;12.30;99.90
22450;DHT22;11392;57.390;-2.468;2023-04-28T11:37:25;12.50;99.90
22450;DHT22;11392;57.390;-2.468;2023-04-28T11:39:53;12.60;99.90
22450;DHT22;11392;57.390;-2.468;2023-04-28T11:42:20;12.50;99.90
22450;DHT22;11392;57.390;-2.468;2023-04-28T11:44:51;12.60;99.90
22450;DHT22;11392;57.390;-2.468;2023-04-28T11:47:29;12.50;99.90
22450;DHT22;11392;57.390;-2.468;2023-04-28T11:49:57;12.40;99.90
22450;DHT22;11392;57.390;-2.468;2023-04-28T11:52:24;12.30;99.90
22450;DHT22;11392;57.390;-2.468;2023-04-28T11:54:58;12.20;99.90
22450;DHT22;11392;57.390;-2.468;2023-04-28T11:57:26;12.30;99.90
22450;DHT22;11392;57.390;-2.468;2023-04-28T12:00:14;12.30;99.90
22450;DHT22;11392;57.390;-2.468;2023-04-28T12:02:45;12.20;99.90
22450;DHT22;11392;57.390;-2.468;2023-04-28T12:05:12;12.10;99.90
22450;DHT22;11392;57.390;-2.468;2023-04-28T12:07:41;12.10;99.90
22450;DHT22;11392;57.390;-2.468;2023-04-28T12:10:13;12.00;99.90
22450;DHT22;11392;57.390;-2.468;2023-04-28T12:12:44;11.90;99.90
22450;DHT22;11392;57.390;-2.468;2023-04-28T12:15:19;11.80;99.90
22450;DHT22;11392;57.390;-2.468;2023-04-28T12:18:10;11.80;99.90
22450;DHT22;11392;57.390;-2.468;2023-04-28T12:20:37;11.60;99.90
22450;DHT22;11392;57.390;-2.468;2023-04-28T12:23:05;11.50;99.90
22450;DHT22;11392;57.390;-2.468;2023-04-28T12:25:43;11.50;99.90
22450;DHT22;11392;57.390;-2.468;2023-04-28T12:28:10;11.40;99.90
22450;DHT22;11392;57.390;-2.468;2023-04-28T12:30:37;11.40;99.90
22450;DHT22;11392;57.390;-2.468;2023-04-28T12:33:23;11.60;99.90
22450;DHT22;11392;57.390;-2.468;2023-04-28T12:35:51;12.10;99.90
22450;DHT22;11392;57.390;-2.468;2023-04-28T12:38:24;12.60;99.90
22450;DHT22;11392;57.390;-2.468;2023-04-28T12:40:51;12.70;99.90
22450;DHT22;11392;57.390;-2.468;2023-04-28T12:43:19;12.90;99.90
22450;DHT22;11392;57.390;-2.468;2023-04-28T12:45:50;13.10;99.90
22450;DHT22;11392;57.390;-2.468;2023-04-28T12:48:19;13.20;99.90
22450;DHT22;11392;57.390;-2.468;2023-04-28T12:50:46;13.00;99.90
22450;DHT22;11392;57.390;-2.468;2023-04-28T12:53:13;12.80;99.90
22450;DHT22;11392;57.390;-2.468;2023-04-28T12:55:40;12.70;99.90
22450;DHT22;11392;57.390;-2.468;2023-04-28T12:58:07;12.50;99.90
22450;DHT22;11392;57.390;-2.468;2023-04-28T13:00:34;12.30;99.90
22450;DHT22;11392;57.390;-2.468;2023-04-28T13:03:01;12.10;99.90
22450;DHT22;11392;57.390;-2.468;2023-04-28T13:05:30;12.00;99.90
22450;DHT22;11392;57.390;-2.468;2023-04-28T13:07:57;11.80;99.90
22450;DHT22;11392;57.390;-2.468;2023-04-28T13:10:25;11.80;99.90
22450;DHT22;11392;57.390;-2.468;2023-04-28T13:12:52;11.80;99.90
22450;DHT22;11392;57.390;-2.468;2023-04-28T13:15:19;11.80;99.90
22450;DHT22;11392;57.390;-2.468;2023-04-28T13:17:47;11.90;99.90
22450;DHT22;11392;57.390;-2.468;2023-04-28T13:20:14;12.10;99.90
22450;DHT22;11392;57.390;-2.468;2023-04-28T13:22:41;12.10;99.90
22450;DHT22;11392;57.390;-2.468;2023-04-28T13:25:08;12.10;99.90
22450;DHT22;11392;57.390;-2.468;2023-04-28T13:27:35;12.00;99.90
22450;DHT22;11392;57.390;-2.468;2023-04-28T13:30:04;12.00;99.90
22450;DHT22;11392;57.390;-2.468;2023-04-28T13:32:31;12.00;99.90
22450;DHT22;11392;57.390;-2.468;2023-04-28T13:34:59;12.50;99.90
22450;DHT22;11392;57.390;-2.468;2023-04-28T13:37:26;13.20;99.90
22450;DHT22;11392;57.390;-2.468;2023-04-28T13:39:53;13.50;99.90
22450;DHT22;11392;57.390;-2.468;2023-04-28T13:42:20;13.70;99.90
22450;DHT22;11392;57.390;-2.468;2023-04-28T13:44:47;13.70;99.90
22450;DHT22;11392;57.390;-2.468;2023-04-28T13:47:15;13.60;99.90
22450;DHT22;11392;57.390;-2.468;2023-04-28T13:49:42;13.50;99.90
22450;DHT22;11392;57.390;-2.468;2023-04-28T13:52:09;13.50;99.90
22450;DHT22;11392;57.390;-2.468;2023-04-28T13:54:36;13.50;99.90
22450;DHT22;11392;57.390;-2.468;2023-04-28T13:57:03;13.20;99.90
22450;DHT22;11392;57.390;-2.468;2023-04-28T13:59:30;13.10;99.90
22450;DHT22;11392;57.390;-2.468;2023-04-28T14:01:58;12.80;99.90
22450;DHT22;11392;57.390;-2.468;2023-04-28T14:04:25;12.70;99.90
22450;DHT22;11392;57.390;-2.468;2023-04-28T14:06:52;12.60;99.90
22450;DHT22;11392;57.390;-2.468;2023-04-28T14:09:19;12.50;99.90
22450;DHT22;11392;57.390;-2.468;2023-04-28T14:11:46;12.40;99.90
22450;DHT22;11392;57.390;-2.468;2023-04-28T14:14:13;12.40;99.90
22450;DHT22;11392;57.390;-2.468;2023-04-28T14:16:40;12.30;99.90
22450;DHT22;11392;57.390;-2.468;2023-04-28T14:19:07;12.40;99.90
22450;DHT22;11392;57.390;-2.468;2023-04-28T14:21:35;12.40;99.90
22450;DHT22;11392;57.390;-2.468;2023-04-28T14:24:02;12.60;99.90
22450;DHT22;11392;57.390;-2.468;2023-04-28T14:26:29;12.80;99.90
22450;DHT22;11392;57.390;-2.468;2023-04-28T14:28:56;13.10;99.90
22450;DHT22;11392;57.390;-2.468;2023-04-28T14:31:24;12.90;99.90
22450;DHT22;11392;57.390;-2.468;2023-04-28T14:33:51;12.90;99.90
22450;DHT22;11392;57.390;-2.468;2023-04-28T14:36:18;12.60;99.90
22450;DHT22;11392;57.390;-2.468;2023-04-28T14:38:46;12.50;99.90
22450;DHT22;11392;57.390;-2.468;2023-04-28T14:41:13;12.50;99.90
22450;DHT22;11392;57.390;-2.468;2023-04-28T14:43:40;12.30;99.90
22450;DHT22;11392;57.390;-2.468;2023-04-28T14:46:07;12.30;99.90
22450;DHT22;11392;57.390;-2.468;2023-04-28T14:48:35;12.30;99.90
22450;DHT22;11392;57.390;-2.468;2023-04-28T14:51:02;12.20;99.90
22450;DHT22;11392;57.390;-2.468;2023-04-28T14:53:29;12.20;99.90
22450;DHT22;11392;57.390;-2.468;2023-04-28T14:55:57;12.10;99.90
22450;DHT22;11392;57.390;-2.468;2023-04-28T14:58:43;12.20;99.90
22450;DHT22;11392;57.390;-2.468;2023-04-28T15:01:10;12.00;99.90
22450;DHT22;11392;57.390;-2.468;2023-04-28T15:03:37;12.00;99.90
22450;DHT22;11392;57.390;-2.468;2023-04-28T15:06:05;11.90;99.90
22450;DHT22;11392;57.390;-2.468;2023-04-28T15:08:32;11.80;99.90
22450;DHT22;11392;57.390;-2.468;2023-04-28T15:10:59;11.90;99.90
22450;DHT22;11392;57.390;-2.468;2023-04-28T15:13:26;11.80;99.90
22450;DHT22;11392;57.390;-2.468;2023-04-28T15:15:54;11.60;99.90
22450;DHT22;11392;57.390;-2.468;2023-04-28T15:18:22;11.40;99.90
22450;DHT22;11392;57.390;-2.468;2023-04-28T15:20:50;11.20;99.90
22450;DHT22;11392;57.390;-2.468;2023-04-28T15:23:17;11.10;99.90
22450;DHT22;11392;57.390;-2.468;2023-04-28T15:25:45;11.00;99.90
22450;DHT22;11392;57.390;-2.468;2023-04-28T15:28:12;11.00;99.90
22450;DHT22;11392;57.390;-2.468;2023-04-28T15:30:39;10.80;99.90
22450;DHT22;11392;57.390;-2.468;2023-04-28T15:33:07;10.60;99.90
22450;DHT22;11392;57.390;-2.468;2023-04-28T15:35:34;10.40;99.90
22450;DHT22;11392;57.390;-2.468;2023-04-28T15:38:01;10.40;99.90
22450;DHT22;11392;57.390;-2.468;2023-04-28T15:40:28;10.20;99.90
22450;DHT22;11392;57.390;-2.468;2023-04-28T15:42:55;10.20;99.90
22450;DHT22;11392;57.390;-2.468;2023-04-28T15:45:22;10.10;99.90
22450;DHT22;11392;57.390;-2.468;2023-04-28T15:47:49;10.10;99.90
22450;DHT22;11392;57.390;-2.468;2023-04-28T15:50:17;10.10;99.90
22450;DHT22;11392;57.390;-2.468;2023-04-28T15:52:47;10.00;99.90
22450;DHT22;11392;57.390;-2.468;2023-04-28T15:55:20;10.10;99.90
22450;DHT22;11392;57.390;-2.468;2023-04-28T15:57:47;10.10;99.90